createdAt,value
2022-10-05T00:01:24.889Z,101294.66
2022-10-05T00:03:53.651Z,101301.75
2022-10-05T00:06:20.018Z,101293.16
2022-10-05T00:08:46.415Z,101280.59
2022-10-05T00:11:14.887Z,101281.28
2022-10-05T00:13:41.622Z,101280.44
2022-10-05T00:16:10.739Z,101274.75
2022-10-05T00:18:37.596Z,101272.34
2022-10-05T00:21:17.322Z,101270.06
2022-10-05T00:23:43.706Z,101264.22
2022-10-05T00:26:18.558Z,101261.94
2022-10-05T00:28:45.026Z,101259.88
2022-10-05T00:31:26.298Z,101261.00
2022-10-05T00:33:53.054Z,101260.31
2022-10-05T00:36:19.472Z,101260.09
2022-10-05T00:38:45.783Z,101262.66
2022-10-05T00:41:30.461Z,101259.53
2022-10-05T00:43:59.684Z,101262.28
2022-10-05T00:46:43.319Z,101262.88
2022-10-05T00:49:15.864Z,101260.56
2022-10-05T00:51:51.643Z,101261.25
2022-10-05T00:54:32.786Z,101256.09
2022-10-05T00:57:06.479Z,101246.50
2022-10-05T00:59:47.177Z,101234.88
2022-10-05T01:02:46.106Z,101238.28
2022-10-05T01:05:20.641Z,101244.06
2022-10-05T01:07:56.036Z,101258.03
2022-10-05T01:10:45.253Z,101249.25
2022-10-05T01:13:32.760Z,101258.28
2022-10-05T01:16:41.081Z,101251.88
2022-10-05T01:19:26.521Z,101255.66
2022-10-05T01:22:11.353Z,101255.66
2022-10-05T01:24:58.181Z,101262.28
2022-10-05T01:27:40.832Z,101275.78
2022-10-05T01:30:16.991Z,101272.00
2022-10-05T01:32:48.406Z,101270.38
2022-10-05T01:35:20.670Z,101274.97
2022-10-05T01:37:46.922Z,101269.22
2022-10-05T01:40:27.508Z,101267.16
2022-10-05T01:43:14.044Z,101280.88
2022-10-05T01:45:40.374Z,101278.44
2022-10-05T01:48:22.345Z,101282.16
2022-10-05T01:51:07.371Z,101276.47
2022-10-05T01:54:07.634Z,101274.59
2022-10-05T01:56:53.034Z,101273.56
2022-10-05T01:59:53.490Z,101264.75
2022-10-05T02:02:23.662Z,101265.19
2022-10-05T02:05:12.607Z,101263.88
2022-10-05T02:07:47.686Z,101270.34
2022-10-05T02:10:28.498Z,101261.47
2022-10-05T02:13:02.116Z,101265.09
2022-10-05T02:15:53.068Z,101262.03
2022-10-05T02:18:27.031Z,101265.97
2022-10-05T02:20:57.062Z,101269.28
2022-10-05T02:23:27.079Z,101274.03
2022-10-05T02:25:56.023Z,101284.59
2022-10-05T02:28:33.292Z,101279.53
2022-10-05T02:31:08.083Z,101277.75
2022-10-05T02:33:35.381Z,101275.88
2022-10-05T02:36:12.147Z,101271.59
2022-10-05T02:38:59.819Z,101268.41
2022-10-05T02:41:39.098Z,101263.88
2022-10-05T02:44:40.212Z,101262.81
2022-10-05T02:47:29.687Z,101252.59
2022-10-05T02:50:09.520Z,101246.84
2022-10-05T02:52:56.151Z,101232.53
2022-10-05T02:55:38.980Z,101217.41
2022-10-05T02:58:14.900Z,101213.88
2022-10-05T03:01:23.636Z,101208.22
2022-10-05T03:04:14.204Z,101197.78
2022-10-05T03:06:54.078Z,101195.06
2022-10-05T03:09:24.033Z,101188.81
2022-10-05T03:12:15.799Z,101189.59
2022-10-05T03:15:23.663Z,101183.84
2022-10-05T03:18:13.033Z,101183.25
2022-10-05T03:20:51.433Z,101169.06
2022-10-05T03:23:35.090Z,101161.72
2022-10-05T03:26:32.418Z,101161.69
2022-10-05T03:29:23.058Z,101161.22
2022-10-05T03:32:12.475Z,101149.75
2022-10-05T03:34:48.708Z,101145.09
2022-10-05T03:37:23.233Z,101148.84
2022-10-05T03:40:09.993Z,101150.59
2022-10-05T03:42:59.995Z,101151.28
2022-10-05T03:45:30.462Z,101161.31
2022-10-05T03:48:15.355Z,101148.66
2022-10-05T03:50:46.062Z,101147.16
2022-10-05T03:53:19.676Z,101150.16
2022-10-05T03:55:54.751Z,101151.97
2022-10-05T03:58:39.213Z,101148.97
2022-10-05T04:01:13.388Z,101154.13
2022-10-05T04:03:45.733Z,101152.66
2022-10-05T04:06:17.761Z,101151.81
2022-10-05T04:08:52.260Z,101156.91
2022-10-05T04:11:24.042Z,101164.25
2022-10-05T04:14:03.098Z,101168.25
2022-10-05T04:16:54.037Z,101160.97
2022-10-05T04:19:30.893Z,101168.63
2022-10-05T04:21:57.177Z,101161.53
2022-10-05T04:24:34.161Z,101162.38
2022-10-05T04:27:07.359Z,101155.16
2022-10-05T04:29:37.921Z,101156.84
2022-10-05T04:32:10.177Z,101148.88
2022-10-05T04:35:02.080Z,101148.28
2022-10-05T04:37:48.704Z,101138.22
2022-10-05T04:40:30.458Z,101139.13
2022-10-05T04:43:18.625Z,101136.97
2022-10-05T04:46:06.834Z,101143.56
2022-10-05T04:48:58.566Z,101143.44
2022-10-05T04:51:33.635Z,101149.59
2022-10-05T04:54:35.256Z,101147.19
2022-10-05T04:57:13.496Z,101140.47
2022-10-05T04:59:53.641Z,101137.25
2022-10-05T05:02:39.310Z,101125.16
2022-10-05T05:05:27.143Z,101123.69
2022-10-05T05:08:06.948Z,101118.75
2022-10-05T05:10:45.077Z,101112.25
2022-10-05T05:13:37.893Z,101102.56
2022-10-05T05:16:29.230Z,101100.84
2022-10-05T05:19:13.919Z,101100.41
2022-10-05T05:22:02.890Z,101100.06
2022-10-05T05:24:42.295Z,101100.63
2022-10-05T05:27:39.126Z,101106.69
2022-10-05T05:30:17.535Z,101102.84
2022-10-05T05:32:54.100Z,101096.22
2022-10-05T05:35:52.736Z,101093.25
2022-10-05T05:38:30.190Z,101092.53
2022-10-05T05:41:08.408Z,101093.88
2022-10-05T05:43:46.245Z,101089.22
2022-10-05T05:46:45.054Z,101096.06
2022-10-05T05:49:24.123Z,101097.97
2022-10-05T05:51:58.109Z,101099.25
2022-10-05T05:54:30.057Z,101108.47
2022-10-05T05:57:14.725Z,101102.19
2022-10-05T05:59:46.860Z,101111.69
2022-10-05T06:02:19.305Z,101118.94
2022-10-05T06:04:53.501Z,101115.25
2022-10-05T06:07:30.160Z,101112.41
2022-10-05T06:10:05.609Z,101103.88
2022-10-05T06:12:41.492Z,101112.44
2022-10-05T06:15:33.047Z,101121.59
2022-10-05T06:18:04.727Z,101120.09
2022-10-05T06:20:38.226Z,101124.09
2022-10-05T06:23:12.866Z,101125.44
2022-10-05T06:25:58.260Z,101131.50
2022-10-05T06:28:27.175Z,101131.84
2022-10-05T06:31:08.642Z,101138.22
2022-10-05T06:34:14.632Z,101135.16
2022-10-05T06:36:49.019Z,101126.69
2022-10-05T06:39:24.225Z,101136.66
2022-10-05T06:42:29.192Z,101127.63
2022-10-05T06:45:19.284Z,101134.13
2022-10-05T06:48:07.362Z,101123.84
2022-10-05T06:50:38.502Z,101126.72
2022-10-05T06:53:33.795Z,101129.91
2022-10-05T06:56:06.699Z,101130.81
2022-10-05T06:58:48.216Z,101126.84
2022-10-05T07:01:36.235Z,101129.34
2022-10-05T07:04:40.015Z,101131.63
2022-10-05T07:07:44.843Z,101117.47
2022-10-05T07:10:39.795Z,101122.50
2022-10-05T07:13:27.920Z,101117.69
2022-10-05T07:16:31.640Z,101115.31
2022-10-05T07:19:16.625Z,101113.91
2022-10-05T07:22:11.051Z,101124.00
2022-10-05T07:25:15.928Z,101113.69
2022-10-05T07:27:51.797Z,101122.16
2022-10-05T07:30:18.980Z,101125.00
2022-10-05T07:33:09.313Z,101119.28
2022-10-05T07:36:29.634Z,101128.06
2022-10-05T07:39:05.331Z,101118.53
2022-10-05T07:41:40.093Z,101114.97
2022-10-05T07:44:29.924Z,101108.78
2022-10-05T07:47:04.522Z,101114.84
2022-10-05T07:49:49.991Z,101118.56
2022-10-05T07:52:24.193Z,101112.81
2022-10-05T07:54:57.212Z,101123.28
2022-10-05T07:57:34.101Z,101116.47
2022-10-05T08:00:06.174Z,101123.59
2022-10-05T08:02:44.442Z,101116.63
2022-10-05T08:05:26.437Z,101110.00
2022-10-05T08:08:14.300Z,101105.13
2022-10-05T08:10:50.899Z,101117.19
2022-10-05T08:13:29.006Z,101110.63
2022-10-05T08:15:59.771Z,101112.75
2022-10-05T08:19:17.541Z,101113.81
2022-10-05T08:21:54.073Z,101108.50
2022-10-05T08:24:38.502Z,101099.72
2022-10-05T08:27:15.233Z,101109.13
2022-10-05T08:29:58.575Z,101105.56
2022-10-05T08:32:30.437Z,101109.03
2022-10-05T08:35:34.179Z,101102.56
2022-10-05T08:38:04.263Z,101100.16
2022-10-05T08:41:12.430Z,101106.56
2022-10-05T08:44:03.761Z,101100.72
2022-10-05T08:46:53.111Z,101091.91
2022-10-05T08:49:40.723Z,101089.00
2022-10-05T08:52:28.898Z,101096.59
2022-10-05T08:55:10.133Z,101092.97
2022-10-05T08:57:48.554Z,101094.03
2022-10-05T09:00:23.308Z,101091.47
2022-10-05T09:03:06.077Z,101088.69
2022-10-05T09:06:10.666Z,101094.56
2022-10-05T09:08:58.665Z,101087.97
2022-10-05T09:11:39.420Z,101104.22
2022-10-05T09:14:30.795Z,101084.97
2022-10-05T09:17:09.284Z,101081.00
2022-10-05T09:20:15.035Z,101087.44
2022-10-05T09:23:09.853Z,101083.25
2022-10-05T09:25:44.416Z,101083.16
2022-10-05T09:29:02.111Z,101089.28
2022-10-05T09:31:59.044Z,101085.19
2022-10-05T09:34:44.635Z,101085.56
2022-10-05T09:40:47.516Z,101096.00
2022-10-05T09:43:41.352Z,101099.28
2022-10-05T09:46:29.797Z,101096.69
2022-10-05T09:49:20.299Z,101106.09
2022-10-05T09:52:20.641Z,101096.41
2022-10-05T09:55:25.542Z,101108.06
2022-10-05T09:58:14.252Z,101103.94
2022-10-05T10:01:09.611Z,101105.88
2022-10-05T10:04:06.988Z,101105.38
2022-10-05T10:07:04.953Z,101096.81
2022-10-05T10:09:40.122Z,101099.69
2022-10-05T10:12:29.960Z,101102.63
2022-10-05T10:15:27.442Z,101096.38
2022-10-05T10:18:08.123Z,101104.81
2022-10-05T10:21:09.012Z,101098.59
2022-10-05T10:24:14.614Z,101087.22
2022-10-05T10:26:51.813Z,101095.94
2022-10-05T10:29:37.502Z,101082.09
2022-10-05T10:32:41.097Z,101082.66
2022-10-05T10:35:34.542Z,101080.00
2022-10-05T10:38:09.807Z,101080.13
2022-10-05T10:40:54.545Z,101077.72
2022-10-05T10:43:40.917Z,101074.28
2022-10-05T10:46:25.797Z,101087.97
2022-10-05T10:49:11.617Z,101087.78
2022-10-05T10:52:01.372Z,101083.41
2022-10-05T10:54:36.420Z,101096.72
2022-10-05T10:57:09.241Z,101089.53
2022-10-05T10:59:47.660Z,101091.66
2022-10-05T11:02:32.923Z,101080.97
2022-10-05T11:05:33.529Z,101084.56
2022-10-05T11:08:10.035Z,101093.56
2022-10-05T11:10:54.804Z,101089.25
2022-10-05T11:13:53.221Z,101084.91
2022-10-05T11:16:22.271Z,101079.59
2022-10-05T11:19:16.641Z,101083.69
2022-10-05T11:22:28.007Z,101075.38
2022-10-05T11:25:20.208Z,101067.19
2022-10-05T11:27:59.804Z,101066.72
2022-10-05T11:31:04.163Z,101058.16
2022-10-05T11:34:09.887Z,101050.81
2022-10-05T11:37:05.640Z,101054.31
2022-10-05T11:39:44.876Z,101050.03
2022-10-05T11:42:39.641Z,101051.38
2022-10-05T11:45:24.204Z,101032.66
2022-10-05T11:48:08.352Z,101040.19
2022-10-05T11:51:03.666Z,101041.88
2022-10-05T11:53:39.235Z,101029.69
2022-10-05T11:56:12.634Z,101037.56
2022-10-05T11:58:49.258Z,101032.50
2022-10-05T12:01:17.747Z,101031.31
2022-10-05T12:03:57.942Z,101034.94
2022-10-05T12:06:45.529Z,101037.38
2022-10-05T12:09:17.889Z,101037.81
2022-10-05T12:12:12.660Z,101041.75
2022-10-05T12:14:48.061Z,101042.56
2022-10-05T12:17:23.484Z,101039.00
2022-10-05T12:20:06.910Z,101033.81
2022-10-05T12:23:06.401Z,101037.44
2022-10-05T12:25:35.814Z,101037.00
2022-10-05T12:28:09.456Z,101026.72
2022-10-05T12:31:11.198Z,101028.28
2022-10-05T12:34:10.765Z,101030.56
2022-10-05T12:37:02.918Z,101023.56
2022-10-05T12:39:30.951Z,101036.13
2022-10-05T12:42:25.945Z,101023.09
2022-10-05T12:45:36.746Z,101024.38
2022-10-05T12:48:18.668Z,101022.69
2022-10-05T12:50:51.072Z,101016.50
2022-10-05T12:53:32.997Z,101018.84
2022-10-05T12:56:11.182Z,101019.66
2022-10-05T12:58:54.050Z,101017.31
2022-10-05T13:01:38.625Z,101017.22
2022-10-05T13:04:20.248Z,101008.41
2022-10-05T13:07:08.096Z,101005.03
2022-10-05T13:09:52.551Z,101008.25
2022-10-05T13:12:51.476Z,101008.06
2022-10-05T13:15:36.087Z,100999.03
2022-10-05T13:18:12.984Z,101000.56
2022-10-05T13:20:47.012Z,101002.31
2022-10-05T13:23:18.823Z,101000.69
2022-10-05T13:25:48.149Z,101004.34
2022-10-05T13:28:19.525Z,100995.25
2022-10-05T13:31:15.071Z,100995.97
2022-10-05T13:34:08.858Z,100998.00
2022-10-05T13:36:44.173Z,101002.41
2022-10-05T13:39:34.768Z,100994.53
2022-10-05T13:42:36.905Z,100999.72
2022-10-05T13:45:12.859Z,100996.19
2022-10-05T13:48:16.321Z,100991.13
2022-10-05T13:50:59.845Z,100986.50
2022-10-05T13:53:55.935Z,100983.34
2022-10-05T13:56:29.086Z,100979.44
2022-10-05T13:59:11.792Z,100978.28
2022-10-05T14:01:52.519Z,100972.34
2022-10-05T14:04:27.177Z,100975.97
2022-10-05T14:06:53.684Z,100970.38
2022-10-05T14:09:19.960Z,100974.34
2022-10-05T14:12:05.724Z,100972.78
2022-10-05T14:14:42.348Z,100972.34
2022-10-05T14:17:33.005Z,100964.47
2022-10-05T14:20:03.319Z,100972.00
2022-10-05T14:22:29.702Z,100962.44
2022-10-05T14:25:01.984Z,100955.31
2022-10-05T14:27:31.105Z,100959.16
2022-10-05T14:30:09.535Z,100962.72
2022-10-05T14:32:56.538Z,100963.91
2022-10-05T14:35:25.929Z,100965.47
2022-10-05T14:37:58.353Z,100950.78
2022-10-05T14:40:31.133Z,100957.50
2022-10-05T14:43:00.076Z,100957.47
2022-10-05T14:45:29.936Z,100951.94
2022-10-05T14:48:10.094Z,100957.03
2022-10-05T14:50:51.587Z,100947.13
2022-10-05T14:53:21.152Z,100949.56
2022-10-05T14:56:01.839Z,100945.13
2022-10-05T14:58:56.410Z,100947.06
2022-10-05T15:01:27.879Z,100931.97
2022-10-05T15:04:26.473Z,100939.00
2022-10-05T15:07:27.211Z,100942.16
2022-10-05T15:10:10.656Z,100938.16
2022-10-05T15:12:52.746Z,100941.38
2022-10-05T15:15:37.022Z,100938.59
2022-10-05T15:18:15.794Z,100931.06
2022-10-05T15:20:54.443Z,100932.63
2022-10-05T15:23:40.650Z,100925.09
2022-10-05T15:26:25.644Z,100926.78
2022-10-05T15:29:29.517Z,100923.91
2022-10-05T15:32:04.156Z,100917.13
2022-10-05T15:34:44.549Z,100917.09
2022-10-05T15:37:24.739Z,100911.97
2022-10-05T15:40:04.599Z,100912.03
2022-10-05T15:42:39.359Z,100899.44
2022-10-05T15:45:19.438Z,100903.78
2022-10-05T15:47:52.975Z,100898.72
2022-10-05T15:50:29.603Z,100900.28
2022-10-05T15:52:55.889Z,100896.34
2022-10-05T15:55:37.343Z,100891.63
2022-10-05T15:58:15.796Z,100897.56
2022-10-05T16:00:51.643Z,100886.91
2022-10-05T16:03:31.528Z,100892.44
2022-10-05T16:06:28.229Z,100898.72
2022-10-05T16:09:18.575Z,100895.97
2022-10-05T16:12:06.560Z,100902.25
2022-10-05T16:14:41.731Z,100897.41
2022-10-05T16:17:13.996Z,100897.78
2022-10-05T16:19:59.482Z,100898.59
2022-10-05T16:22:47.421Z,100892.06
2022-10-05T16:25:19.066Z,100886.78
2022-10-05T16:28:22.350Z,100886.22
2022-10-05T16:31:06.657Z,100888.09
2022-10-05T16:33:54.337Z,100884.16
2022-10-05T16:36:32.462Z,100886.78
2022-10-05T16:39:12.242Z,100879.75
2022-10-05T16:42:03.847Z,100878.47
2022-10-05T16:44:39.298Z,100870.06
2022-10-05T16:47:45.120Z,100874.56
2022-10-05T16:50:29.973Z,100873.66
2022-10-05T16:53:01.886Z,100872.94
2022-10-05T16:55:50.392Z,100893.50
2022-10-05T16:58:47.950Z,100885.84
2022-10-05T17:01:48.396Z,100891.72
2022-10-05T17:04:58.015Z,100889.41
2022-10-05T17:07:49.979Z,100896.25
2022-10-05T17:10:31.987Z,100892.03
2022-10-05T17:13:28.362Z,100881.59
2022-10-05T17:16:21.948Z,100882.78
2022-10-05T17:18:57.310Z,100885.00
2022-10-05T17:21:46.142Z,100885.84
2022-10-05T17:24:23.876Z,100889.41
2022-10-05T17:27:02.804Z,100890.38
2022-10-05T17:29:48.125Z,100888.28
2022-10-05T17:32:17.267Z,100893.63
2022-10-05T17:35:18.233Z,100892.53
2022-10-05T17:38:14.345Z,100883.34
2022-10-05T17:41:01.549Z,100871.13
2022-10-05T17:43:30.803Z,100872.06
2022-10-05T17:46:00.661Z,100867.97
2022-10-05T17:48:41.941Z,100868.44
2022-10-05T17:51:52.785Z,100868.06
2022-10-05T17:55:19.191Z,100864.91
2022-10-05T17:57:45.659Z,100861.97
2022-10-05T18:00:40.624Z,100856.84
2022-10-05T18:03:34.060Z,100865.06
2022-10-05T18:06:29.477Z,100865.69
2022-10-05T18:09:22.451Z,100870.22
2022-10-05T18:12:16.917Z,100869.19
2022-10-05T18:14:58.574Z,100869.44
2022-10-05T18:17:42.135Z,100869.53
2022-10-05T18:20:34.643Z,100864.97
2022-10-05T18:23:00.967Z,100852.00
2022-10-05T18:25:51.192Z,100856.97
2022-10-05T18:28:29.714Z,100850.38
2022-10-05T18:31:34.024Z,100854.44
2022-10-05T18:34:26.285Z,100853.72
2022-10-05T18:37:21.396Z,100852.88
2022-10-05T18:40:04.833Z,100859.03
2022-10-05T18:42:48.632Z,100862.72
2022-10-05T18:45:35.560Z,100852.34
2022-10-05T18:48:24.109Z,100851.06
2022-10-05T18:51:23.054Z,100852.06
2022-10-05T18:54:09.798Z,100852.22
2022-10-05T18:56:50.798Z,100855.75
2022-10-05T18:59:32.109Z,100857.13
2022-10-05T19:02:19.715Z,100855.31
2022-10-05T19:05:02.594Z,100856.75
2022-10-05T19:08:15.746Z,100850.53
2022-10-05T19:10:55.114Z,100851.69
2022-10-05T19:13:41.497Z,100856.28
2022-10-05T19:16:14.182Z,100856.00
2022-10-05T19:19:29.343Z,100857.38
2022-10-05T19:22:32.543Z,100853.47
2022-10-05T19:25:20.905Z,100857.25
2022-10-05T19:28:08.495Z,100868.94
2022-10-05T19:31:04.723Z,100874.28
2022-10-05T19:33:41.116Z,100875.59
2022-10-05T19:36:33.341Z,100882.47
2022-10-05T19:39:11.665Z,100879.72
2022-10-05T19:42:06.576Z,100890.94
2022-10-05T19:45:03.442Z,100888.84
2022-10-05T19:47:56.503Z,100895.22
2022-10-05T19:50:28.344Z,100901.16
2022-10-05T19:53:12.811Z,100896.88
2022-10-05T19:55:44.325Z,100899.91
2022-10-05T19:58:17.742Z,100892.38
2022-10-05T20:00:48.000Z,100900.72
2022-10-05T20:03:22.511Z,100895.88
2022-10-05T20:05:52.996Z,100897.28
2022-10-05T20:08:20.924Z,100895.31
2022-10-05T20:11:11.347Z,100894.28
2022-10-05T20:13:59.647Z,100897.91
2022-10-05T20:16:45.638Z,100898.13
2022-10-05T20:19:47.380Z,100902.31
2022-10-05T20:22:34.633Z,100906.38
2022-10-05T20:25:05.625Z,100911.00
2022-10-05T20:27:47.074Z,100913.19
2022-10-05T20:30:22.086Z,100919.47
2022-10-05T20:32:53.257Z,100918.34
2022-10-05T20:35:23.715Z,100925.34
2022-10-05T20:37:50.128Z,100914.78
2022-10-05T20:40:18.660Z,100914.00
2022-10-05T20:42:45.164Z,100917.38
2022-10-05T20:45:12.824Z,100916.59
2022-10-05T20:47:40.345Z,100911.72
2022-10-05T20:50:11.926Z,100911.72
2022-10-05T20:52:39.562Z,100919.69
2022-10-05T20:55:08.727Z,100914.56
2022-10-05T20:57:38.473Z,100923.50
2022-10-05T21:00:05.805Z,100924.56
2022-10-05T21:02:32.181Z,100928.25
2022-10-05T21:04:58.542Z,100921.47
2022-10-05T21:07:25.662Z,100927.72
2022-10-05T21:09:52.096Z,100920.91
2022-10-05T21:12:18.455Z,100932.44
2022-10-05T21:14:45.311Z,100936.09
2022-10-05T21:17:12.442Z,100929.84
2022-10-05T21:19:40.190Z,100934.28
2022-10-05T21:22:08.624Z,100927.38
2022-10-05T21:24:37.032Z,100929.22
2022-10-05T21:27:04.214Z,100931.88
2022-10-05T21:29:30.833Z,100939.50
2022-10-05T21:31:57.481Z,100940.47
2022-10-05T21:34:23.949Z,100930.44
2022-10-05T21:36:50.567Z,100929.13
2022-10-05T21:39:17.009Z,100928.84
2022-10-05T21:41:43.349Z,100931.94
2022-10-05T21:44:09.663Z,100940.44
2022-10-05T21:46:37.653Z,100931.97
2022-10-05T21:49:06.838Z,100932.41
2022-10-05T21:51:33.984Z,100935.84
2022-10-05T21:54:03.543Z,100933.78
2022-10-05T21:56:43.678Z,100934.81
2022-10-05T21:59:13.120Z,100935.22
2022-10-05T22:01:39.453Z,100933.09
2022-10-05T22:04:06.443Z,100931.69
2022-10-05T22:06:34.222Z,100935.84
2022-10-05T22:09:01.075Z,100936.94
2022-10-05T22:11:28.949Z,100944.03
2022-10-05T22:14:01.944Z,100942.09
2022-10-05T22:16:31.653Z,100946.13
2022-10-05T22:18:59.049Z,100944.56
2022-10-05T22:21:25.445Z,100944.31
2022-10-05T22:23:51.799Z,100943.50
2022-10-05T22:26:21.175Z,100943.22
2022-10-05T22:28:48.389Z,100943.19
2022-10-05T22:31:15.836Z,100953.19
2022-10-05T22:33:42.244Z,100946.41
2022-10-05T22:36:09.671Z,100949.06
2022-10-05T22:38:36.098Z,100954.22
2022-10-05T22:41:02.505Z,100950.88
2022-10-05T22:43:28.933Z,100957.47
2022-10-05T22:45:55.897Z,100964.19
2022-10-05T22:48:22.392Z,100962.25
2022-10-05T22:50:49.261Z,100971.63
2022-10-05T22:53:15.724Z,100964.13
2022-10-05T22:55:42.052Z,100971.25
2022-10-05T22:58:08.474Z,100978.25
2022-10-05T23:00:56.273Z,100973.75
2022-10-05T23:03:21.163Z,100981.03
2022-10-05T23:05:47.505Z,100983.00
2022-10-05T23:08:13.836Z,100984.88
2022-10-05T23:10:40.182Z,100982.75
2022-10-05T23:13:07.295Z,100991.38
2022-10-05T23:15:34.432Z,100996.41
2022-10-05T23:18:00.754Z,101003.00
2022-10-05T23:20:27.186Z,100995.53
2022-10-05T23:22:53.722Z,100999.81
2022-10-05T23:25:22.874Z,101002.28
2022-10-05T23:27:49.396Z,100999.41
2022-10-05T23:30:15.832Z,100994.69
2022-10-05T23:32:44.106Z,101001.88
2022-10-05T23:35:12.522Z,101007.50
2022-10-05T23:37:41.069Z,101008.06
2022-10-05T23:40:10.407Z,101015.66
2022-10-05T23:42:36.746Z,101018.63
2022-10-05T23:45:03.350Z,101023.94
2022-10-05T23:47:29.829Z,101022.69
2022-10-05T23:49:56.263Z,101028.44
2022-10-05T23:52:22.670Z,101024.78
2022-10-05T23:54:49.009Z,101029.50
2022-10-05T23:57:19.259Z,101029.81
2022-10-05T23:59:46.423Z,101038.13
